Time;durP1;ratioP1;P1;durP2;ratioP2;P2;SDS_P1;SDS_P2;PMS_P1;PMS_P2;Temp;Humidity;BMP_temperature;BMP_pressure;BME280_temperature;BME280_humidity;BME280_pressure;Samples;Min_cycle;Max_cycle;Signal;HPM_P1;HPM_P2
2021/07/09 00:02:44;;;;;;;4.25;2.30;;;16.30;1.00;;;;;;5012999;28;20026;-74
2021/07/09 00:05:09;;;;;;;3.58;2.28;;;16.30;1.00;;;;;;5013189;28;20026;-73
2021/07/09 00:07:35;;;;;;;3.42;2.30;;;16.30;1.00;;;;;;5014709;28;20030;-74
2021/07/09 00:10:00;;;;;;;3.67;2.58;;;16.30;1.00;;;;;;5003663;28;20034;-74
2021/07/09 00:12:26;;;;;;;3.17;2.72;;;16.30;1.00;;;;;;5019457;28;20034;-73
2021/07/09 00:14:52;;;;;;;4.70;3.00;;;16.30;1.00;;;;;;5019661;28;20093;-73
2021/07/09 00:17:17;;;;;;;2.88;2.22;;;16.30;1.00;;;;;;5019992;28;20062;-74
2021/07/09 00:19:43;;;;;;;2.60;2.03;;;16.30;1.00;;;;;;5020249;28;20109;-73
2021/07/09 00:22:09;;;;;;;2.63;2.42;;;16.30;1.00;;;;;;5018417;28;20041;-73
2021/07/09 00:24:35;;;;;;;2.53;2.33;;;16.30;1.00;;;;;;5020042;28;20030;-74
2021/07/09 00:27:03;;;;;;;2.92;2.25;;;16.30;1.00;;;;;;5019713;28;20024;-73
2021/07/09 00:29:29;;;;;;;2.25;2.05;;;16.30;1.00;;;;;;5025706;28;20026;-73
2021/07/09 00:31:55;;;;;;;3.42;2.20;;;16.40;1.00;;;;;;5002664;28;20450;-75
2021/07/09 00:34:21;;;;;;;2.70;2.45;;;16.40;1.00;;;;;;5019927;28;20464;-74
2021/07/09 00:36:47;;;;;;;2.95;1.92;;;16.40;1.00;;;;;;5019350;28;20076;-74
2021/07/09 00:39:12;;;;;;;2.75;2.13;;;16.40;1.00;;;;;;5020413;28;20038;-73
2021/07/09 00:41:38;;;;;;;4.20;2.30;;;16.30;1.00;;;;;;5001881;28;20097;-76
2021/07/09 00:44:05;;;;;;;4.88;2.10;;;16.40;1.00;;;;;;4999886;28;20042;-74
2021/07/09 00:46:31;;;;;;;2.45;2.25;;;16.30;1.00;;;;;;5016908;28;20034;-73
2021/07/09 00:48:57;;;;;;;2.40;1.90;;;16.30;1.00;;;;;;5019497;28;20026;-73
2021/07/09 00:51:23;;;;;;;2.90;2.10;;;16.30;1.00;;;;;;5019612;28;20034;-74
2021/07/09 00:53:48;;;;;;;2.95;2.65;;;16.30;1.00;;;;;;5019701;28;20034;-73
2021/07/09 00:56:14;;;;;;;2.50;2.30;;;16.30;1.00;;;;;;5017800;28;20109;-73
2021/07/09 00:58:39;;;;;;;1.90;1.80;;;16.30;1.00;;;;;;5018425;28;20033;-73
2021/07/09 01:01:05;;;;;;;3.28;2.20;;;16.30;1.00;;;;;;5018257;28;20041;-73
2021/07/09 01:03:31;;;;;;;2.40;2.20;;;16.30;1.00;;;;;;5018114;28;20037;-73
2021/07/09 01:05:56;;;;;;;6.75;3.03;;;16.20;1.00;;;;;;5017224;28;20101;-73
2021/07/09 01:08:22;;;;;;;3.97;2.67;;;16.30;1.00;;;;;;5018016;28;20384;-73
2021/07/09 01:10:48;;;;;;;3.38;3.08;;;16.30;1.00;;;;;;5017698;28;20097;-73
2021/07/09 01:13:14;;;;;;;3.83;3.30;;;16.20;1.00;;;;;;5000428;28;20483;-73
2021/07/09 01:15:40;;;;;;;5.18;2.53;;;16.20;1.00;;;;;;5017836;28;20026;-74
2021/07/09 01:18:05;;;;;;;3.42;2.90;;;16.20;1.00;;;;;;5018860;28;20068;-73
2021/07/09 01:20:31;;;;;;;3.72;2.83;;;16.10;1.00;;;;;;5014795;28;20399;-73
2021/07/09 01:22:58;;;;;;;5.20;2.70;;;16.10;1.00;;;;;;5014626;28;20044;-74
2021/07/09 01:25:26;;;;;;;3.78;2.65;;;16.10;1.00;;;;;;5014889;28;20050;-74
2021/07/09 01:27:55;;;;;;;3.35;2.90;;;16.10;1.00;;;;;;5028730;28;20090;-72
2021/07/09 01:30:23;;;;;;;5.20;3.13;;;16.00;1.00;;;;;;5029536;28;20022;-72
2021/07/09 01:32:52;;;;;;;4.63;2.35;;;16.10;1.00;;;;;;5024547;28;20148;-73
2021/07/09 01:35:20;;;;;;;3.65;2.88;;;16.10;1.00;;;;;;5020423;28;20076;-73
2021/07/09 01:38:02;;;;;;;4.07;2.60;;;16.10;1.00;;;;;;5015164;28;20030;-73
2021/07/09 01:40:29;;;;;;;3.70;2.55;;;16.10;1.00;;;;;;5013527;28;20030;-73
2021/07/09 01:42:55;;;;;;;4.47;2.50;;;16.10;1.00;;;;;;5014547;28;20042;-73
2021/07/09 01:45:22;;;;;;;4.32;3.13;;;16.10;1.00;;;;;;5014148;28;20030;-73
2021/07/09 01:47:48;;;;;;;3.30;3.00;;;16.00;1.00;;;;;;4996826;28;20026;-73
2021/07/09 01:50:14;;;;;;;4.22;2.50;;;16.00;1.00;;;;;;5014176;28;20022;-73
2021/07/09 01:52:40;;;;;;;5.50;2.92;;;16.00;1.00;;;;;;4996785;28;20033;-73
2021/07/09 01:55:06;;;;;;;3.10;2.60;;;16.00;1.00;;;;;;5013818;28;20029;-73
2021/07/09 01:57:32;;;;;;;3.10;2.80;;;16.00;1.00;;;;;;5014312;28;20495;-73
2021/07/09 01:59:59;;;;;;;4.25;2.67;;;16.00;1.00;;;;;;5014422;28;20037;-72
2021/07/09 02:02:25;;;;;;;5.25;2.38;;;16.00;1.00;;;;;;5014180;28;20117;-73
2021/07/09 02:04:53;;;;;;;5.63;3.08;;;15.90;1.00;;;;;;5014563;28;20056;-73
2021/07/09 02:07:22;;;;;;;3.40;3.10;;;15.90;1.00;;;;;;5014292;28;20480;-74
2021/07/09 02:09:49;;;;;;;6.72;2.75;;;15.90;1.00;;;;;;4996611;28;20026;-74
2021/07/09 02:12:16;;;;;;;6.60;2.67;;;15.90;1.00;;;;;;5014518;28;20033;-74
2021/07/09 02:14:43;;;;;;;3.10;2.58;;;15.90;1.00;;;;;;5014027;28;20029;-74
2021/07/09 02:17:15;;;;;;;2.78;2.53;;;15.90;1.00;;;;;;5014075;28;20503;-73
2021/07/09 02:19:41;;;;;;;3.17;2.50;;;15.90;1.00;;;;;;5016924;28;20079;-73
2021/07/09 02:22:09;;;;;;;2.88;2.63;;;15.90;1.00;;;;;;5017520;28;20030;-74
2021/07/09 02:24:36;;;;;;;4.32;2.45;;;15.90;1.00;;;;;;5014129;28;20108;-73
2021/07/09 02:27:03;;;;;;;3.25;2.67;;;15.80;1.00;;;;;;5016672;28;20483;-73
2021/07/09 02:29:34;;;;;;;4.13;2.67;;;15.80;1.00;;;;;;5019762;28;20030;-73
2021/07/09 02:32:01;;;;;;;5.72;2.40;;;15.80;1.00;;;;;;5019067;28;20041;-73
2021/07/09 02:34:28;;;;;;;4.18;2.90;;;15.80;1.00;;;;;;5017462;28;20091;-73
2021/07/09 02:36:54;;;;;;;3.03;2.65;;;15.80;1.00;;;;;;5019023;28;20030;-73
2021/07/09 02:39:21;;;;;;;2.80;2.33;;;15.80;1.00;;;;;;5018665;28;20084;-73
2021/07/09 02:41:47;;;;;;;7.70;2.90;;;15.80;1.00;;;;;;5015787;28;20032;-73
2021/07/09 02:44:13;;;;;;;3.45;2.75;;;15.80;1.00;;;;;;5013093;28;20030;-73
2021/07/09 02:46:38;;;;;;;3.33;2.40;;;15.80;1.00;;;;;;5013563;28;20029;-73
2021/07/09 02:49:04;;;;;;;7.55;3.28;;;15.80;1.00;;;;;;5013435;28;20022;-74
2021/07/09 02:51:30;;;;;;;3.17;2.88;;;15.80;1.00;;;;;;4996511;28;20407;-74
2021/07/09 02:53:55;;;;;;;2.70;2.40;;;15.80;1.00;;;;;;5014984;28;20046;-74
2021/07/09 02:56:21;;;;;;;4.15;3.25;;;15.80;1.00;;;;;;5016183;28;20030;-73
2021/07/09 02:58:46;;;;;;;3.95;3.63;;;15.80;1.00;;;;;;5007871;28;20571;-73
2021/07/09 03:01:12;;;;;;;4.50;3.05;;;15.80;1.00;;;;;;5015845;28;20037;-73
2021/07/09 03:03:37;;;;;;;2.90;2.70;;;15.80;1.00;;;;;;5017141;28;20022;-73
2021/07/09 03:06:03;;;;;;;3.60;2.95;;;15.90;1.00;;;;;;5017890;28;20029;-74
2021/07/09 03:08:28;;;;;;;5.95;2.85;;;15.90;1.00;;;;;;5017207;28;20382;-74
2021/07/09 03:10:54;;;;;;;3.83;2.85;;;15.80;1.00;;;;;;5016896;28;20098;-73
2021/07/09 03:13:20;;;;;;;3.22;2.53;;;15.80;1.00;;;;;;5016160;28;20061;-73
2021/07/09 03:15:45;;;;;;;4.43;2.90;;;15.80;1.00;;;;;;5015718;28;20049;-73
2021/07/09 03:18:11;;;;;;;3.65;2.55;;;15.80;1.00;;;;;;5014510;28;20032;-73
2021/07/09 03:20:36;;;;;;;3.65;2.58;;;15.80;1.00;;;;;;5013108;28;20605;-73
2021/07/09 03:23:03;;;;;;;4.57;2.63;;;15.80;1.00;;;;;;5013777;28;20585;-73
2021/07/09 03:25:28;;;;;;;4.22;2.75;;;15.80;1.00;;;;;;5014861;28;20116;-74
2021/07/09 03:27:54;;;;;;;4.00;2.97;;;15.80;1.00;;;;;;5014695;28;20034;-73
2021/07/09 03:30:20;;;;;;;2.85;2.55;;;15.80;1.00;;;;;;5014981;28;20081;-73
2021/07/09 03:32:46;;;;;;;3.72;3.22;;;15.70;1.00;;;;;;5014997;28;20108;-73
2021/07/09 03:35:12;;;;;;;5.70;3.05;;;15.70;1.00;;;;;;5016275;28;20021;-74
2021/07/09 03:37:37;;;;;;;3.53;2.90;;;15.80;1.00;;;;;;5014328;28;20044;-73
2021/07/09 03:40:08;;;;;;;3.53;2.85;;;15.70;1.00;;;;;;5014290;28;20488;-73
2021/07/09 03:42:33;;;;;;;5.03;3.10;;;15.80;1.00;;;;;;5028921;22;20041;-78
2021/07/09 03:44:59;;;;;;;4.10;2.85;;;15.80;1.00;;;;;;5068071;28;20799;-77
2021/07/09 03:47:24;;;;;;;3.80;2.88;;;15.70;1.00;;;;;;5052669;28;20520;-76
2021/07/09 03:49:50;;;;;;;4.55;3.15;;;15.70;1.00;;;;;;5050017;28;20026;-77
2021/07/09 03:52:15;;;;;;;3.88;3.08;;;15.70;1.00;;;;;;5052422;28;20028;-78
2021/07/09 03:54:41;;;;;;;5.20;3.40;;;15.70;1.00;;;;;;5055226;28;20482;-77
2021/07/09 03:57:07;;;;;;;3.88;3.28;;;15.70;1.00;;;;;;5053223;28;20402;-78
2021/07/09 03:59:33;;;;;;;6.47;3.00;;;15.70;1.00;;;;;;5055169;28;20033;-77
2021/07/09 04:01:58;;;;;;;4.88;3.10;;;15.80;1.00;;;;;;5052511;28;20037;-77
2021/07/09 04:04:24;;;;;;;3.53;2.80;;;15.80;1.00;;;;;;5055502;28;20025;-83
2021/07/09 04:06:49;;;;;;;5.13;2.92;;;15.70;1.00;;;;;;5052682;28;20055;-78
2021/07/09 04:09:15;;;;;;;4.70;3.05;;;15.70;1.00;;;;;;5071361;28;20029;-78
2021/07/09 04:11:41;;;;;;;4.05;2.88;;;15.70;1.00;;;;;;5056700;28;20033;-78
2021/07/09 04:14:06;;;;;;;4.03;2.65;;;15.70;1.00;;;;;;5053978;28;20170;-78
2021/07/09 04:16:32;;;;;;;5.15;3.13;;;15.70;1.00;;;;;;5067633;28;20166;-78
2021/07/09 04:18:57;;;;;;;3.72;2.83;;;15.60;1.00;;;;;;5067066;28;20032;-77
2021/07/09 04:21:23;;;;;;;4.53;2.80;;;15.60;1.00;;;;;;5056175;28;20024;-78
2021/07/09 04:23:48;;;;;;;5.05;3.63;;;15.70;1.00;;;;;;5054038;28;20116;-77
2021/07/09 04:26:15;;;;;;;3.25;2.70;;;15.70;1.00;;;;;;5052064;28;20023;-77
2021/07/09 04:28:40;;;;;;;3.38;2.83;;;15.70;1.00;;;;;;5051328;28;20029;-78
2021/07/09 04:31:06;;;;;;;4.60;3.50;;;15.70;1.00;;;;;;5053695;28;20021;-77
2021/07/09 04:33:31;;;;;;;5.18;2.80;;;15.60;1.00;;;;;;5066887;28;20036;-77
2021/07/09 04:35:57;;;;;;;3.33;3.03;;;15.60;1.00;;;;;;5052595;28;20029;-78
2021/07/09 04:38:23;;;;;;;3.20;2.85;;;15.60;1.00;;;;;;5053986;28;20036;-80
2021/07/09 04:40:48;;;;;;;3.33;2.95;;;15.60;1.00;;;;;;5053528;28;20056;-77
2021/07/09 04:43:14;;;;;;;4.00;2.83;;;15.50;1.00;;;;;;5052278;28;20530;-77
2021/07/09 04:45:40;;;;;;;4.95;2.42;;;15.60;1.00;;;;;;5051935;28;20643;-78
2021/07/09 04:48:06;;;;;;;3.45;3.15;;;15.60;1.00;;;;;;5057000;28;20025;-78
2021/07/09 04:50:32;;;;;;;3.10;2.67;;;15.50;1.00;;;;;;5067347;28;20159;-77
2021/07/09 04:52:57;;;;;;;5.78;3.53;;;15.50;1.00;;;;;;5053344;28;20458;-76
2021/07/09 04:55:23;;;;;;;3.80;2.75;;;15.50;1.00;;;;;;5056257;28;20068;-77
2021/07/09 04:57:49;;;;;;;4.03;3.28;;;15.50;1.00;;;;;;5056580;28;20029;-78
2021/07/09 05:00:14;;;;;;;4.93;2.38;;;15.50;1.00;;;;;;5048897;28;20482;-77
2021/07/09 05:02:40;;;;;;;2.58;2.38;;;15.50;1.00;;;;;;5071834;28;20043;-77
2021/07/09 05:05:08;;;;;;;3.20;2.80;;;15.50;1.00;;;;;;5049912;28;20470;-78
2021/07/09 05:07:34;;;;;;;2.80;2.50;;;15.50;1.00;;;;;;5056650;28;20033;-78
2021/07/09 05:09:59;;;;;;;2.85;2.55;;;15.50;1.00;;;;;;5059973;28;20025;-77
2021/07/09 05:12:25;;;;;;;2.95;2.63;;;15.50;1.00;;;;;;5055172;28;20093;-77
2021/07/09 05:14:50;;;;;;;2.60;2.40;;;15.50;1.00;;;;;;5055924;28;20092;-77
2021/07/09 05:17:16;;;;;;;3.75;2.88;;;15.50;1.00;;;;;;5056684;28;20527;-77
2021/07/09 05:19:41;;;;;;;3.38;2.40;;;15.50;1.00;;;;;;5055110;28;20437;-78
2021/07/09 05:22:10;;;;;;;4.47;3.28;;;15.50;1.00;;;;;;5056050;28;20025;-78
2021/07/09 05:24:36;;;;;;;2.80;2.60;;;15.60;1.00;;;;;;5054922;28;20533;-78
2021/07/09 05:27:01;;;;;;;4.55;2.90;;;15.60;1.00;;;;;;5054387;28;20029;-79
2021/07/09 05:29:27;;;;;;;4.85;2.90;;;15.60;1.00;;;;;;5055527;28;20087;-79
2021/07/09 05:31:53;;;;;;;3.40;2.40;;;15.60;1.00;;;;;;5055996;28;20037;-78
2021/07/09 05:34:18;;;;;;;2.60;2.40;;;15.60;1.00;;;;;;5068316;28;20030;-77
2021/07/09 05:36:44;;;;;;;4.35;2.97;;;15.60;1.00;;;;;;5048800;28;20035;-78
2021/07/09 05:39:12;;;;;;;3.28;3.00;;;15.70;1.00;;;;;;5058002;28;20036;-77
2021/07/09 05:41:37;;;;;;;2.70;2.35;;;15.70;1.00;;;;;;5057936;28;20029;-78
2021/07/09 05:44:03;;;;;;;1.90;1.80;;;15.70;1.00;;;;;;5053889;28;20033;-78
2021/07/09 05:46:29;;;;;;;2.78;2.45;;;15.60;1.00;;;;;;5051518;28;20072;-77
2021/07/09 05:48:54;;;;;;;5.47;2.80;;;15.60;1.00;;;;;;5054976;28;20398;-77
2021/07/09 05:51:20;;;;;;;3.35;3.05;;;15.60;1.00;;;;;;5055571;28;20017;-78
2021/07/09 05:53:46;;;;;;;4.07;2.88;;;15.70;1.00;;;;;;5061036;28;20458;-78
2021/07/09 05:56:11;;;;;;;2.88;2.50;;;15.70;1.00;;;;;;5056828;28;20032;-78
2021/07/09 05:58:37;;;;;;;3.83;2.40;;;15.70;1.00;;;;;;5062966;28;20029;-77
2021/07/09 06:01:03;;;;;;;4.95;2.83;;;15.70;1.00;;;;;;5038952;28;20025;-78
2021/07/09 06:03:28;;;;;;;4.00;3.20;;;15.70;1.00;;;;;;5045283;28;20029;-78
2021/07/09 06:05:54;;;;;;;3.78;2.78;;;15.70;1.00;;;;;;5070282;28;20028;-78
2021/07/09 06:08:19;;;;;;;3.40;3.10;;;15.70;1.00;;;;;;5059343;28;20041;-78
2021/07/09 06:10:45;;;;;;;3.50;2.78;;;15.80;1.00;;;;;;5057046;28;20025;-77
2021/07/09 06:13:10;;;;;;;3.53;2.92;;;15.90;1.00;;;;;;5055478;28;20052;-76
2021/07/09 06:15:36;;;;;;;3.53;3.22;;;15.90;1.00;;;;;;5055657;28;20028;-78
2021/07/09 06:18:02;;;;;;;5.43;2.92;;;15.80;1.00;;;;;;5055255;28;20025;-78
2021/07/09 06:20:27;;;;;;;3.00;2.67;;;15.80;1.00;;;;;;5054961;28;20033;-78
2021/07/09 06:22:53;;;;;;;5.38;3.67;;;15.80;1.00;;;;;;5055563;28;20036;-78
2021/07/09 06:25:18;;;;;;;3.40;3.10;;;15.90;1.00;;;;;;5057960;28;20087;-80
2021/07/09 06:27:44;;;;;;;3.88;3.25;;;15.80;1.00;;;;;;5057597;28;20044;-79
2021/07/09 06:30:11;;;;;;;4.15;3.10;;;15.80;1.00;;;;;;5057561;28;20040;-77
2021/07/09 06:32:37;;;;;;;4.80;3.20;;;15.80;1.00;;;;;;5057123;28;20107;-78
2021/07/09 06:35:06;;;;;;;4.03;3.72;;;15.90;1.00;;;;;;5036250;28;20056;-79
2021/07/09 06:37:32;;;;;;;3.38;3.08;;;16.00;1.00;;;;;;5052011;28;20498;-76
2021/07/09 06:39:57;;;;;;;3.80;3.15;;;16.00;1.00;;;;;;5054094;28;20051;-78
2021/07/09 06:42:23;;;;;;;4.22;3.30;;;16.00;1.00;;;;;;5051864;28;20348;-78
2021/07/09 06:44:48;;;;;;;3.60;3.30;;;16.00;1.00;;;;;;5056931;28;20371;-78
2021/07/09 06:47:14;;;;;;;4.47;3.33;;;16.10;1.00;;;;;;5037957;28;20406;-77
2021/07/09 06:49:40;;;;;;;3.28;2.97;;;16.10;1.00;;;;;;5053826;28;20031;-77
2021/07/09 06:52:05;;;;;;;3.13;2.72;;;16.10;1.00;;;;;;5037933;28;20021;-76
2021/07/09 06:54:31;;;;;;;6.68;3.50;;;16.10;1.00;;;;;;5037326;28;20029;-79
2021/07/09 06:56:57;;;;;;;3.63;3.33;;;16.10;1.00;;;;;;5054399;28;20478;-78
2021/07/09 06:59:22;;;;;;;6.93;4.18;;;16.10;1.00;;;;;;5054881;28;20139;-78
2021/07/09 07:01:49;;;;;;;4.50;3.92;;;16.10;1.00;;;;;;5052156;28;20020;-78
2021/07/09 07:04:15;;;;;;;3.83;3.15;;;16.10;1.00;;;;;;5052605;28;20017;-77
2021/07/09 07:06:41;;;;;;;4.88;3.92;;;16.20;1.00;;;;;;5053040;28;20035;-78
2021/07/09 07:09:06;;;;;;;4.15;3.75;;;16.30;1.00;;;;;;5054155;28;20021;-78
2021/07/09 07:11:32;;;;;;;4.13;3.53;;;16.40;1.00;;;;;;5055159;28;20029;-77
2021/07/09 07:13:58;;;;;;;4.32;3.53;;;16.70;1.00;;;;;;5053606;28;20045;-77
2021/07/09 07:16:23;;;;;;;4.57;3.38;;;16.80;1.00;;;;;;5058578;28;20040;-77
2021/07/09 07:18:49;;;;;;;6.78;3.03;;;16.90;1.00;;;;;;5052850;28;20020;-77
2021/07/09 07:21:14;;;;;;;5.15;3.28;;;17.00;1.00;;;;;;5054714;28;20104;-78
2021/07/09 07:23:40;;;;;;;3.08;2.78;;;17.10;1.00;;;;;;5053680;28;20031;-78
2021/07/09 07:26:05;;;;;;;5.82;3.20;;;17.10;1.00;;;;;;5041293;28;20056;-78
2021/07/09 07:28:31;;;;;;;4.40;3.35;;;17.30;1.00;;;;;;5057448;28;20032;-77
2021/07/09 07:30:57;;;;;;;3.80;3.10;;;17.30;1.00;;;;;;5056122;28;20083;-78
2021/07/09 07:33:22;;;;;;;3.50;2.70;;;17.50;1.00;;;;;;5055523;28;20048;-77
2021/07/09 07:35:48;;;;;;;4.90;2.83;;;17.40;1.00;;;;;;5038197;28;20549;-77
2021/07/09 07:38:14;;;;;;;5.53;3.22;;;17.50;1.00;;;;;;5057151;28;20024;-79
2021/07/09 07:40:40;;;;;;;4.50;2.90;;;17.60;1.00;;;;;;5051477;28;20026;-78
2021/07/09 07:43:06;;;;;;;3.20;2.90;;;17.80;1.00;;;;;;5041680;28;20029;-78
2021/07/09 07:45:33;;;;;;;4.07;2.60;;;17.90;1.00;;;;;;5052779;28;20040;-78
2021/07/09 07:47:58;;;;;;;3.05;2.80;;;18.00;1.00;;;;;;5056493;28;20021;-77
2021/07/09 07:50:25;;;;;;;3.20;2.47;;;18.00;1.00;;;;;;5058229;28;20025;-78
2021/07/09 07:52:51;;;;;;;3.20;2.85;;;18.00;1.00;;;;;;5065266;28;20021;-78
2021/07/09 07:55:17;;;;;;;3.35;3.10;;;18.00;1.00;;;;;;5053854;28;20035;-78
2021/07/09 07:57:43;;;;;;;4.57;3.22;;;18.00;1.00;;;;;;5059131;28;20025;-78
2021/07/09 08:00:10;;;;;;;3.42;2.78;;;18.00;1.00;;;;;;5054881;28;20079;-77
2021/07/09 08:02:36;;;;;;;4.82;2.63;;;18.00;1.00;;;;;;5054151;28;20098;-78
2021/07/09 08:05:02;;;;;;;5.05;2.70;;;18.10;1.00;;;;;;5054308;28;20577;-80
2021/07/09 08:07:28;;;;;;;2.63;2.42;;;18.10;1.00;;;;;;5052903;28;20052;-78
2021/07/09 08:09:53;;;;;;;3.10;2.80;;;18.20;1.00;;;;;;5057005;28;20509;-78
2021/07/09 08:12:19;;;;;;;4.05;2.60;;;18.30;1.00;;;;;;5056225;28;20033;-78
2021/07/09 08:14:44;;;;;;;3.63;2.40;;;18.40;1.00;;;;;;5055173;28;20029;-80
2021/07/09 08:17:10;;;;;;;3.05;2.22;;;18.30;1.00;;;;;;5052300;28;20546;-77
2021/07/09 08:19:35;;;;;;;2.20;2.00;;;18.40;1.00;;;;;;5053303;28;20546;-78
2021/07/09 08:22:01;;;;;;;2.80;2.53;;;18.30;1.00;;;;;;5072617;28;20021;-78
2021/07/09 08:24:27;;;;;;;3.05;2.47;;;18.30;1.00;;;;;;5056202;28;20100;-80
2021/07/09 08:26:52;;;;;;;3.78;2.33;;;18.30;1.00;;;;;;5053470;28;20032;-78
2021/07/09 08:29:18;;;;;;;3.78;2.70;;;18.30;1.00;;;;;;5040686;28;20093;-78
2021/07/09 08:31:44;;;;;;;3.75;2.67;;;18.30;1.00;;;;;;5058623;28;20322;-78
2021/07/09 08:34:09;;;;;;;2.97;2.70;;;18.30;1.00;;;;;;5060373;28;20509;-78
2021/07/09 08:36:35;;;;;;;3.88;2.50;;;18.60;1.00;;;;;;5063634;28;20071;-78
2021/07/09 08:39:01;;;;;;;2.53;2.33;;;18.90;1.00;;;;;;5067378;28;20029;-79
2021/07/09 08:41:26;;;;;;;2.63;2.40;;;19.20;1.00;;;;;;5065652;28;20048;-78
2021/07/09 08:43:52;;;;;;;2.50;2.25;;;19.50;1.00;;;;;;5066939;28;20033;-78
2021/07/09 08:46:18;;;;;;;2.95;2.50;;;19.40;99.90;;;;;;5046892;28;20044;-78
2021/07/09 08:48:44;;;;;;;5.22;3.22;;;19.60;99.90;;;;;;5059450;28;20103;-78
2021/07/09 08:51:10;;;;;;;3.17;2.88;;;19.50;99.90;;;;;;5039811;28;20045;-77
2021/07/09 08:53:37;;;;;;;4.05;3.65;;;19.30;99.90;;;;;;5059759;28;20111;-78
2021/07/09 08:56:04;;;;;;;3.58;3.22;;;19.30;99.90;;;;;;5064018;28;20033;-79
2021/07/09 08:58:30;;;;;;;4.47;2.90;;;19.40;99.90;;;;;;5061911;28;20041;-80
2021/07/09 09:00:56;;;;;;;3.20;2.90;;;19.70;99.90;;;;;;5063762;28;20132;-80
2021/07/09 09:03:26;;;;;;;3.67;3.38;;;19.60;99.90;;;;;;5043941;28;20032;-78
2021/07/09 09:05:59;;;;;;;3.25;3.00;;;19.80;99.90;;;;;;5057791;28;20029;-78
2021/07/09 09:08:26;;;;;;;8.60;3.42;;;20.20;99.90;;;;;;5060493;28;20032;-78
2021/07/09 09:10:58;;;;;;;4.10;3.05;;;20.20;99.90;;;;;;5061737;28;20500;-78
2021/07/09 09:13:33;;;;;;;2.75;2.38;;;20.10;99.90;;;;;;5059394;28;20033;-78
2021/07/09 09:15:58;;;;;;;3.33;2.85;;;20.20;99.90;;;;;;5059072;28;20033;-77
2021/07/09 09:18:26;;;;;;;3.28;3.08;;;20.10;99.90;;;;;;5058853;28;20116;-80
2021/07/09 09:21:06;;;;;;;4.13;2.60;;;20.20;99.90;;;;;;5056045;28;20025;-78
2021/07/09 09:23:38;;;;;;;6.00;3.27;;;20.00;99.90;;;;;;5050203;28;20025;-78
2021/07/09 09:26:06;;;;;;;3.88;2.90;;;20.60;99.90;;;;;;5055681;28;20021;-78
2021/07/09 09:28:38;;;;;;;4.85;2.80;;;20.60;99.90;;;;;;5056537;28;20017;-78
2021/07/09 09:31:04;;;;;;;3.33;2.75;;;20.60;99.90;;;;;;5059160;28;20017;-77
2021/07/09 09:33:32;;;;;;;4.93;3.63;;;20.50;99.90;;;;;;5060478;28;20032;-78
2021/07/09 09:35:58;;;;;;;6.03;3.15;;;20.90;99.90;;;;;;5060476;28;20029;-77
2021/07/09 09:38:29;;;;;;;3.90;3.20;;;20.80;99.90;;;;;;5043238;28;20036;-78
2021/07/09 09:40:56;;;;;;;3.92;3.10;;;21.10;99.90;;;;;;5059530;28;20029;-77
2021/07/09 09:43:24;;;;;;;4.03;3.17;;;20.90;99.90;;;;;;5061965;28;20032;-79
2021/07/09 09:46:10;;;;;;;3.72;3.42;;;21.00;99.90;;;;;;5063769;28;20045;-79
2021/07/09 09:48:38;;;;;;;4.13;3.28;;;20.90;99.90;;;;;;5043966;28;20037;-77
2021/07/09 09:51:40;;;;;;;3.20;2.90;;;21.00;99.90;;;;;;5062590;28;20021;-79
2021/07/09 09:54:10;;;;;;;3.47;3.13;;;21.00;99.90;;;;;;5063833;28;20021;-78
2021/07/09 09:56:47;;;;;;;5.30;3.05;;;21.20;99.90;;;;;;5061828;28;20029;-78
2021/07/09 09:59:19;;;;;;;5.57;3.78;;;20.80;99.90;;;;;;5059785;28;20052;-77
2021/07/09 10:01:53;;;;;;;2.65;2.40;;;20.80;99.90;;;;;;5049650;28;20497;-78
2021/07/09 10:04:20;;;;;;;3.03;2.60;;;21.10;99.90;;;;;;5023302;28;20064;-77
2021/07/09 10:06:47;;;;;;;4.20;2.60;;;21.30;99.90;;;;;;5038943;28;20130;-80
2021/07/09 10:09:14;;;;;;;4.70;3.72;;;20.90;99.90;;;;;;5059385;28;20477;-78
2021/07/09 10:11:40;;;;;;;3.85;2.88;;;20.70;99.90;;;;;;5057250;28;20526;-79
2021/07/09 10:14:17;;;;;;;3.63;3.25;;;20.60;99.90;;;;;;5059026;28;20070;-77
2021/07/09 10:16:46;;;;;;;2.97;2.65;;;20.80;99.90;;;;;;5057773;28;20056;-78
2021/07/09 10:19:18;;;;;;;3.03;2.72;;;21.10;99.90;;;;;;5059158;28;20020;-78
2021/07/09 10:21:43;;;;;;;3.45;3.15;;;21.00;99.90;;;;;;5058953;28;20441;-78
2021/07/09 10:24:13;;;;;;;3.97;2.63;;;21.00;99.90;;;;;;5059345;28;20017;-78
2021/07/09 10:26:44;;;;;;;4.15;3.10;;;21.10;99.90;;;;;;5058020;28;20013;-79
2021/07/09 10:29:15;;;;;;;5.35;3.30;;;21.30;99.90;;;;;;5056843;28;20021;-78
2021/07/09 10:31:42;;;;;;;4.85;3.78;;;21.50;99.90;;;;;;5057020;28;20029;-78
2021/07/09 10:34:47;;;;;;;4.18;3.50;;;21.50;99.90;;;;;;5057395;28;20112;-77
2021/07/09 10:37:21;;;;;;;3.58;3.28;;;21.70;99.90;;;;;;5052928;28;20414;-78
2021/07/09 10:39:48;;;;;;;4.40;3.25;;;21.50;99.90;;;;;;5066617;28;20051;-77
2021/07/09 10:42:29;;;;;;;3.60;3.28;;;21.20;99.90;;;;;;5039363;28;20029;-78
2021/07/09 10:44:59;;;;;;;4.78;4.07;;;21.20;99.90;;;;;;5049836;28;20040;-77
2021/07/09 10:47:36;;;;;;;5.53;4.50;;;21.20;99.90;;;;;;5073550;28;20064;-78
2021/07/09 10:50:06;;;;;;;6.57;4.53;;;21.10;99.90;;;;;;5058121;28;20025;-77
2021/07/09 10:52:46;;;;;;;4.47;4.13;;;21.30;99.90;;;;;;5058841;28;20107;-78
2021/07/09 10:55:24;;;;;;;4.87;4.50;;;21.70;99.90;;;;;;5040991;28;20390;-77
2021/07/09 10:58:21;;;;;;;5.10;4.57;;;21.60;99.90;;;;;;5052344;28;20035;-77
2021/07/09 11:01:03;;;;;;;5.68;4.10;;;21.50;99.90;;;;;;5053751;28;20025;-77
2021/07/09 11:03:28;;;;;;;7.95;4.05;;;21.50;99.90;;;;;;5058649;28;20045;-78
2021/07/09 11:05:56;;;;;;;7.15;4.55;;;21.60;99.90;;;;;;5056178;28;20125;-78
2021/07/09 11:08:34;;;;;;;4.88;4.15;;;22.30;99.90;;;;;;5059090;28;20036;-78
2021/07/09 11:11:12;;;;;;;4.90;4.30;;;22.20;99.90;;;;;;5055062;28;20056;-78
2021/07/09 11:13:44;;;;;;;5.47;4.18;;;22.10;99.90;;;;;;5058063;28;20029;-77
2021/07/09 11:16:22;;;;;;;5.50;5.00;;;22.40;99.90;;;;;;5051763;28;20024;-78
2021/07/09 11:18:59;;;;;;;5.28;4.20;;;22.50;99.90;;;;;;5054453;28;20033;-77
2021/07/09 11:21:31;;;;;;;9.57;5.53;;;21.90;99.90;;;;;;5051261;28;20025;-78
2021/07/09 11:24:12;;;;;;;6.63;5.03;;;21.90;99.90;;;;;;5048368;28;20030;-77
2021/07/09 11:26:42;;;;;;;7.28;5.35;;;21.80;99.90;;;;;;5054874;28;20033;-78
2021/07/09 11:29:21;;;;;;;6.30;5.70;;;21.80;99.90;;;;;;5058174;28;20583;-80
2021/07/09 11:31:47;;;;;;;7.85;5.43;;;21.70;99.90;;;;;;5070334;28;20036;-79
2021/07/09 11:34:15;;;;;;;5.43;4.93;;;21.70;99.90;;;;;;5051186;28;20029;-79
2021/07/09 11:36:52;;;;;;;5.95;5.25;;;21.70;99.90;;;;;;5055649;28;20544;-78
2021/07/09 11:39:23;;;;;;;5.55;5.05;;;21.70;99.90;;;;;;5055706;28;20103;-77
2021/07/09 11:41:52;;;;;;;5.00;4.60;;;21.40;99.90;;;;;;5072233;28;20055;-77
2021/07/09 11:44:19;;;;;;;4.97;4.50;;;21.30;99.90;;;;;;5056108;28;20036;-78
2021/07/09 11:46:52;;;;;;;7.57;6.72;;;21.30;99.90;;;;;;5051968;28;20025;-78
2021/07/09 11:49:29;;;;;;;6.35;5.72;;;21.70;99.90;;;;;;5038554;28;20075;-78
2021/07/09 11:51:58;;;;;;;11.30;5.97;;;22.20;99.90;;;;;;5055957;28;20021;-77
2021/07/09 11:54:32;;;;;;;7.75;5.78;;;22.50;99.90;;;;;;5056485;28;20040;-78
2021/07/09 11:57:05;;;;;;;7.10;6.30;;;22.00;99.90;;;;;;5058253;28;20036;-78
2021/07/09 11:59:31;;;;;;;8.02;7.28;;;21.40;99.90;;;;;;5057979;28;20517;-77
2021/07/09 12:02:08;;;;;;;7.95;6.80;;;20.80;99.90;;;;;;5056059;28;20025;-78
2021/07/09 12:04:40;;;;;;;7.50;6.80;;;20.80;99.90;;;;;;5059220;28;20371;-78
2021/07/09 12:07:19;;;;;;;7.85;6.60;;;20.70;99.90;;;;;;5073363;28;20037;-78
2021/07/09 12:09:47;;;;;;;7.72;7.03;;;20.90;99.90;;;;;;5070151;28;20028;-77
2021/07/09 12:12:14;;;;;;;7.55;6.85;;;21.40;99.90;;;;;;5070866;28;20032;-78
2021/07/09 12:15:05;;;;;;;8.40;7.30;;;21.40;99.90;;;;;;5053908;28;20020;-78
2021/07/09 12:17:34;;;;;;;8.23;7.38;;;21.40;99.90;;;;;;5054473;28;20394;-78
2021/07/09 12:20:08;;;;;;;9.30;8.30;;;21.40;99.90;;;;;;5058025;28;20067;-76
2021/07/09 12:22:43;;;;;;;9.38;7.90;;;21.40;99.90;;;;;;5071453;28;20414;-77
2021/07/09 12:25:15;;;;;;;11.13;8.02;;;21.50;99.90;;;;;;5048004;28;20063;-76
2021/07/09 12:27:41;;;;;;;8.77;7.97;;;21.70;99.90;;;;;;5053997;28;20039;-78
2021/07/09 12:30:10;;;;;;;8.10;7.32;;;21.70;99.90;;;;;;5056582;28;20104;-78
2021/07/09 12:33:05;;;;;;;8.57;7.80;;;21.60;99.90;;;;;;5054184;28;20394;-77
2021/07/09 12:35:34;;;;;;;8.50;7.57;;;21.70;99.90;;;;;;5055843;28;20044;-79
2021/07/09 12:38:09;;;;;;;8.23;7.43;;;21.80;99.90;;;;;;5054683;28;20123;-77
2021/07/09 12:40:44;;;;;;;6.85;6.25;;;21.80;99.90;;;;;;5055200;28;20056;-77
2021/07/09 12:43:12;;;;;;;7.18;6.57;;;22.40;99.90;;;;;;5058285;28;20033;-78
2021/07/09 12:45:39;;;;;;;6.05;5.00;;;22.70;99.90;;;;;;5056439;28;20025;-78
2021/07/09 12:48:05;;;;;;;5.82;4.97;;;23.40;99.90;;;;;;5053136;28;20014;-77
2021/07/09 12:50:33;;;;;;;5.47;4.22;;;23.40;99.90;;;;;;5053769;28;20036;-78
2021/07/09 12:53:19;;;;;;;4.90;4.38;;;23.30;99.90;;;;;;5036908;28;20060;-77
2021/07/09 12:55:46;;;;;;;4.68;4.28;;;23.40;99.90;;;;;;5053109;28;20029;-77
2021/07/09 12:58:16;;;;;;;4.78;3.80;;;23.80;99.90;;;;;;5036705;28;20025;-78